sensor_id;sensor_type;location;lat;lon;timestamp;pressure;altitude;pressure_sealevel;temperature;humidity
14204;BME280;7185;51.854;6.622;2023-04-03T00:02:25;102703.28;;;7.70;65.28
14204;BME280;7185;51.854;6.622;2023-04-03T00:04:57;102702.25;;;7.63;65.84
14204;BME280;7185;51.854;6.622;2023-04-03T00:07:28;102698.88;;;7.68;65.79
14204;BME280;7185;51.854;6.622;2023-04-03T00:10:00;102699.88;;;7.73;66.10
14204;BME280;7185;51.854;6.622;2023-04-03T00:12:34;102710.25;;;7.70;65.78
14204;BME280;7185;51.854;6.622;2023-04-03T00:15:07;102707.47;;;7.63;66.70
14204;BME280;7185;51.854;6.622;2023-04-03T00:17:38;102707.47;;;7.63;66.07
14204;BME280;7185;51.854;6.622;2023-04-03T00:20:10;102703.28;;;7.70;66.22
14204;BME280;7185;51.854;6.622;2023-04-03T00:22:42;102706.94;;;7.45;66.91
14204;BME280;7185;51.854;6.622;2023-04-03T00:25:13;102710.47;;;7.47;67.34
14204;BME280;7185;51.854;6.622;2023-04-03T00:27:46;102713.38;;;7.58;67.11
14204;BME280;7185;51.854;6.622;2023-04-03T00:30:20;102722.34;;;7.36;67.55
14204;BME280;7185;51.854;6.622;2023-04-03T00:32:52;102715.84;;;7.52;67.04
14204;BME280;7185;51.854;6.622;2023-04-03T00:35:24;102715.69;;;7.47;67.30
14204;BME280;7185;51.854;6.622;2023-04-03T00:37:56;102722.53;;;7.42;67.32
14204;BME280;7185;51.854;6.622;2023-04-03T00:40:33;102725.84;;;7.38;67.72
14204;BME280;7185;51.854;6.622;2023-04-03T00:43:11;102731.00;;;7.34;67.19
14204;BME280;7185;51.854;6.622;2023-04-03T00:45:45;102717.38;;;7.45;67.17
14204;BME280;7185;51.854;6.622;2023-04-03T00:48:20;102727.38;;;7.29;68.32
14204;BME280;7185;51.854;6.622;2023-04-03T00:50:53;102726.41;;;7.26;66.90
14204;BME280;7185;51.854;6.622;2023-04-03T00:53:28;102730.03;;;7.31;67.57
14204;BME280;7185;51.854;6.622;2023-04-03T00:56:03;102735.78;;;7.49;67.52
14204;BME280;7185;51.854;6.622;2023-04-03T00:58:40;102729.59;;;7.46;66.44
14204;BME280;7185;51.854;6.622;2023-04-03T01:01:18;102732.97;;;7.42;67.58
14204;BME280;7185;51.854;6.622;2023-04-03T01:03:52;102729.84;;;7.25;67.79
14204;BME280;7185;51.854;6.622;2023-04-03T01:06:27;102730.84;;;7.28;67.21
14204;BME280;7185;51.854;6.622;2023-04-03T01:09:01;102737.25;;;7.40;67.06
14204;BME280;7185;51.854;6.622;2023-04-03T01:11:34;102739.94;;;7.43;66.43
14204;BME280;7185;51.854;6.622;2023-04-03T01:14:07;102737.81;;;7.29;67.08
14204;BME280;7185;51.854;6.622;2023-04-03T01:16:38;102734.88;;;7.18;67.45
14204;BME280;7185;51.854;6.622;2023-04-03T01:19:15;102743.69;;;7.22;67.36
14204;BME280;7185;51.854;6.622;2023-04-03T01:22:05;102737.53;;;7.20;68.00
14204;BME280;7185;51.854;6.622;2023-04-03T01:24:42;102745.72;;;7.04;67.67
14204;BME280;7185;51.854;6.622;2023-04-03T01:27:13;102747.78;;;7.14;67.74
14204;BME280;7185;51.854;6.622;2023-04-03T01:29:47;102744.41;;;7.18;67.29
14204;BME280;7185;51.854;6.622;2023-04-03T01:32:20;102745.50;;;7.25;67.77
14204;BME280;7185;51.854;6.622;2023-04-03T01:34:51;102741.16;;;7.25;67.03
14204;BME280;7185;51.854;6.622;2023-04-03T01:37:23;102745.69;;;7.31;66.50
14204;BME280;7185;51.854;6.622;2023-04-03T01:39:55;102750.97;;;7.34;66.56
14204;BME280;7185;51.854;6.622;2023-04-03T01:42:26;102749.56;;;7.15;66.94
14204;BME280;7185;51.854;6.622;2023-04-03T01:44:58;102753.16;;;7.18;66.89
14204;BME280;7185;51.854;6.622;2023-04-03T01:47:31;102758.75;;;7.04;67.42
14204;BME280;7185;51.854;6.622;2023-04-03T01:50:03;102766.22;;;6.91;68.10
14204;BME280;7185;51.854;6.622;2023-04-03T01:52:35;102765.09;;;7.12;66.98
14204;BME280;7185;51.854;6.622;2023-04-03T01:57:39;102769.47;;;6.84;68.17
14204;BME280;7185;51.854;6.622;2023-04-03T02:00:11;102767.34;;;6.99;67.37
14204;BME280;7185;51.854;6.622;2023-04-03T02:02:44;102769.56;;;6.87;68.17
14204;BME280;7185;51.854;6.622;2023-04-03T02:05:16;102761.41;;;7.05;67.58
14204;BME280;7185;51.854;6.622;2023-04-03T02:07:48;102763.84;;;6.99;67.19
14204;BME280;7185;51.854;6.622;2023-04-03T02:10:19;102767.38;;;6.74;67.33
14204;BME280;7185;51.854;6.622;2023-04-03T02:12:51;102771.28;;;6.86;67.85
14204;BME280;7185;51.854;6.622;2023-04-03T02:15:22;102771.56;;;6.68;67.91
14204;BME280;7185;51.854;6.622;2023-04-03T02:17:55;102781.28;;;6.73;66.67
14204;BME280;7185;51.854;6.622;2023-04-03T02:20:27;102777.72;;;6.70;66.83
14204;BME280;7185;51.854;6.622;2023-04-03T02:22:59;102774.72;;;6.58;67.33
14204;BME280;7185;51.854;6.622;2023-04-03T02:25:32;102772.22;;;6.63;67.26
14204;BME280;7185;51.854;6.622;2023-04-03T02:28:03;102779.81;;;6.55;67.35
14204;BME280;7185;51.854;6.622;2023-04-03T02:30:35;102773.19;;;6.65;66.89
14204;BME280;7185;51.854;6.622;2023-04-03T02:33:08;102774.16;;;6.68;66.62
14204;BME280;7185;51.854;6.622;2023-04-03T02:35:40;102769.53;;;6.60;66.93
14204;BME280;7185;51.854;6.622;2023-04-03T02:38:15;102771.16;;;6.56;66.41
14204;BME280;7185;51.854;6.622;2023-04-03T02:40:47;102771.00;;;6.51;66.59
14204;BME280;7185;51.854;6.622;2023-04-03T02:43:18;102779.13;;;6.35;66.98
14204;BME280;7185;51.854;6.622;2023-04-03T02:45:50;102777.09;;;6.52;66.32
14204;BME280;7185;51.854;6.622;2023-04-03T02:48:23;102780.25;;;6.42;66.44
14204;BME280;7185;51.854;6.622;2023-04-03T02:50:55;102789.09;;;6.47;65.68
14204;BME280;7185;51.854;6.622;2023-04-03T02:53:27;102781.28;;;6.47;66.09
14204;BME280;7185;51.854;6.622;2023-04-03T02:55:58;102776.00;;;6.45;65.95
14204;BME280;7185;51.854;6.622;2023-04-03T02:58:30;102775.22;;;6.48;66.18
14204;BME280;7185;51.854;6.622;2023-04-03T03:01:02;102777.09;;;6.52;65.26
14204;BME280;7185;51.854;6.622;2023-04-03T03:03:35;102775.34;;;6.51;65.95
14204;BME280;7185;51.854;6.622;2023-04-03T03:06:07;102780.91;;;6.36;66.31
14204;BME280;7185;51.854;6.622;2023-04-03T03:08:40;102774.69;;;6.32;65.95
14204;BME280;7185;51.854;6.622;2023-04-03T03:11:11;102776.38;;;6.30;65.96
14204;BME280;7185;51.854;6.622;2023-04-03T03:13:43;102781.81;;;6.36;65.58
14204;BME280;7185;51.854;6.622;2023-04-03T03:16:15;102779.25;;;6.38;65.30
14204;BME280;7185;51.854;6.622;2023-04-03T03:18:48;102782.66;;;6.11;66.32
14204;BME280;7185;51.854;6.622;2023-04-03T03:21:19;102788.34;;;6.25;65.38
14204;BME280;7185;51.854;6.622;2023-04-03T03:23:51;102782.06;;;6.18;66.31
14204;BME280;7185;51.854;6.622;2023-04-03T03:26:22;102784.53;;;6.15;65.89
14204;BME280;7185;51.854;6.622;2023-04-03T03:28:54;102781.75;;;6.11;66.13
14204;BME280;7185;51.854;6.622;2023-04-03T03:34:07;102788.63;;;6.33;64.97
14204;BME280;7185;51.854;6.622;2023-04-03T03:36:39;102791.91;;;6.03;65.56
14204;BME280;7185;51.854;6.622;2023-04-03T03:39:11;102794.31;;;5.98;66.41
14204;BME280;7185;51.854;6.622;2023-04-03T03:41:42;102799.31;;;5.92;65.08
14204;BME280;7185;51.854;6.622;2023-04-03T03:44:14;102797.66;;;5.94;65.63
14204;BME280;7185;51.854;6.622;2023-04-03T03:46:45;102800.13;;;5.91;65.58
14204;BME280;7185;51.854;6.622;2023-04-03T03:49:18;102798.78;;;5.78;67.32
14204;BME280;7185;51.854;6.622;2023-04-03T03:51:50;102802.16;;;5.75;66.82
14204;BME280;7185;51.854;6.622;2023-04-03T03:54:22;102803.00;;;5.74;67.21
14204;BME280;7185;51.854;6.622;2023-04-03T03:56:53;102799.34;;;5.69;66.62
14204;BME280;7185;51.854;6.622;2023-04-03T03:59:25;102802.53;;;5.85;66.45
14204;BME280;7185;51.854;6.622;2023-04-03T04:01:57;102805.31;;;5.67;66.79
14204;BME280;7185;51.854;6.622;2023-04-03T04:04:30;102810.34;;;5.85;66.26
14204;BME280;7185;51.854;6.622;2023-04-03T04:07:01;102809.06;;;5.73;66.11
14204;BME280;7185;51.854;6.622;2023-04-03T04:09:33;102817.34;;;5.63;66.51
14204;BME280;7185;51.854;6.622;2023-04-03T04:12:05;102820.34;;;5.51;66.72
14204;BME280;7185;51.854;6.622;2023-04-03T04:14:36;102819.88;;;5.62;66.70
14204;BME280;7185;51.854;6.622;2023-04-03T04:17:08;102822.44;;;5.37;67.37
14204;BME280;7185;51.854;6.622;2023-04-03T04:19:41;102825.03;;;5.37;66.91
14204;BME280;7185;51.854;6.622;2023-04-03T04:22:12;102828.94;;;5.49;66.87
14204;BME280;7185;51.854;6.622;2023-04-03T04:24:44;102826.31;;;5.49;66.86
14204;BME280;7185;51.854;6.622;2023-04-03T04:27:15;102831.16;;;5.62;66.50
14204;BME280;7185;51.854;6.622;2023-04-03T04:29:47;102834.91;;;5.46;66.89
14204;BME280;7185;51.854;6.622;2023-04-03T04:32:18;102834.91;;;5.46;66.04
14204;BME280;7185;51.854;6.622;2023-04-03T04:34:51;102833.28;;;5.27;67.60
14204;BME280;7185;51.854;6.622;2023-04-03T04:37:23;102829.44;;;5.17;68.26
14204;BME280;7185;51.854;6.622;2023-04-03T04:39:55;102828.75;;;5.21;67.48
14204;BME280;7185;51.854;6.622;2023-04-03T04:42:26;102826.50;;;5.31;67.38
14204;BME280;7185;51.854;6.622;2023-04-03T04:44:58;102836.13;;;5.33;67.00
14204;BME280;7185;51.854;6.622;2023-04-03T04:47:29;102836.38;;;5.17;67.55
14204;BME280;7185;51.854;6.622;2023-04-03T04:50:03;102839.03;;;5.18;66.98
14204;BME280;7185;51.854;6.622;2023-04-03T04:52:34;102848.78;;;5.03;68.07
14204;BME280;7185;51.854;6.622;2023-04-03T04:55:07;102842.06;;;5.08;68.24
14204;BME280;7185;51.854;6.622;2023-04-03T04:57:38;102842.72;;;5.02;68.52
14204;BME280;7185;51.854;6.622;2023-04-03T05:00:11;102843.22;;;5.15;68.18
14204;BME280;7185;51.854;6.622;2023-04-03T05:02:43;102847.91;;;4.81;68.19
14204;BME280;7185;51.854;6.622;2023-04-03T05:05:16;102849.16;;;4.91;68.55
14204;BME280;7185;51.854;6.622;2023-04-03T05:07:48;102851.72;;;5.10;67.88
14204;BME280;7185;51.854;6.622;2023-04-03T05:10:19;102846.00;;;4.98;67.85
14204;BME280;7185;51.854;6.622;2023-04-03T05:12:51;102857.94;;;4.93;67.67
14204;BME280;7185;51.854;6.622;2023-04-03T05:15:22;102861.88;;;4.83;68.64
14204;BME280;7185;51.854;6.622;2023-04-03T05:17:54;102863.59;;;4.83;68.69
14204;BME280;7185;51.854;6.622;2023-04-03T05:20:27;102862.75;;;4.84;68.83
14204;BME280;7185;51.854;6.622;2023-04-03T05:22:59;102869.09;;;4.90;68.61
14204;BME280;7185;51.854;6.622;2023-04-03T05:25:30;102873.66;;;4.96;68.68
14204;BME280;7185;51.854;6.622;2023-04-03T05:28:02;102883.97;;;4.94;68.22
14204;BME280;7185;51.854;6.622;2023-04-03T05:30:34;102878.16;;;5.00;68.25
14204;BME280;7185;51.854;6.622;2023-04-03T05:33:05;102882.66;;;4.83;68.64
14204;BME280;7185;51.854;6.622;2023-04-03T05:35:38;102875.47;;;4.77;69.33
14204;BME280;7185;51.854;6.622;2023-04-03T05:38:11;102877.09;;;4.95;68.99
14204;BME280;7185;51.854;6.622;2023-04-03T05:40:43;102882.41;;;4.98;68.66
14204;BME280;7185;51.854;6.622;2023-04-03T05:43:14;102884.75;;;4.92;68.68
14204;BME280;7185;51.854;6.622;2023-04-03T05:45:47;102884.94;;;4.75;69.04
14204;BME280;7185;51.854;6.622;2023-04-03T05:48:19;102884.19;;;4.99;68.84
14204;BME280;7185;51.854;6.622;2023-04-03T05:50:52;102888.63;;;4.81;68.13
14204;BME280;7185;51.854;6.622;2023-04-03T05:53:26;102885.63;;;4.71;69.53
14204;BME280;7185;51.854;6.622;2023-04-03T05:55:58;102886.69;;;4.76;68.95
14204;BME280;7185;51.854;6.622;2023-04-03T05:58:30;102883.53;;;4.84;68.66
14204;BME280;7185;51.854;6.622;2023-04-03T06:01:02;102881.47;;;4.96;67.99
14204;BME280;7185;51.854;6.622;2023-04-03T06:03:34;102877.56;;;4.65;68.85
14204;BME280;7185;51.854;6.622;2023-04-03T06:06:07;102885.41;;;4.67;69.12
14204;BME280;7185;51.854;6.622;2023-04-03T06:08:38;102889.88;;;4.90;68.54
14204;BME280;7185;51.854;6.622;2023-04-03T06:11:10;102886.84;;;4.79;68.67
14204;BME280;7185;51.854;6.622;2023-04-03T06:13:42;102892.44;;;4.89;68.26
14204;BME280;7185;51.854;6.622;2023-04-03T06:16:14;102898.19;;;4.82;68.05
14204;BME280;7185;51.854;6.622;2023-04-03T06:18:47;102905.84;;;4.78;68.91
14204;BME280;7185;51.854;6.622;2023-04-03T06:21:20;102905.88;;;5.00;67.24
14204;BME280;7185;51.854;6.622;2023-04-03T06:23:52;102903.09;;;4.95;67.75
14204;BME280;7185;51.854;6.622;2023-04-03T06:26:24;102913.50;;;4.95;67.72
14204;BME280;7185;51.854;6.622;2023-04-03T06:28:55;102915.47;;;4.81;67.46
14204;BME280;7185;51.854;6.622;2023-04-03T06:31:27;102917.66;;;4.91;66.85
14204;BME280;7185;51.854;6.622;2023-04-03T06:33:59;102916.00;;;4.93;67.31
14204;BME280;7185;51.854;6.622;2023-04-03T06:36:32;102912.72;;;5.19;66.75
14204;BME280;7185;51.854;6.622;2023-04-03T06:39:04;102930.09;;;5.41;66.03
14204;BME280;7185;51.854;6.622;2023-04-03T06:41:38;102913.34;;;5.34;65.87
14204;BME280;7185;51.854;6.622;2023-04-03T06:44:10;102921.72;;;5.48;65.21
14204;BME280;7185;51.854;6.622;2023-04-03T06:46:45;102915.41;;;5.64;64.30
14204;BME280;7185;51.854;6.622;2023-04-03T06:49:18;102912.69;;;5.84;63.74
14204;BME280;7185;51.854;6.622;2023-04-03T06:51:52;102921.81;;;5.72;64.52
14204;BME280;7185;51.854;6.622;2023-04-03T06:54:24;102923.06;;;5.82;62.86
14204;BME280;7185;51.854;6.622;2023-04-03T06:56:56;102939.06;;;5.70;63.31
14204;BME280;7185;51.854;6.622;2023-04-03T06:59:28;102921.44;;;6.31;61.61
14204;BME280;7185;51.854;6.622;2023-04-03T07:02:00;102929.72;;;5.98;62.66
14204;BME280;7185;51.854;6.622;2023-04-03T07:04:34;102935.56;;;6.14;61.77
14204;BME280;7185;51.854;6.622;2023-04-03T07:07:08;102931.97;;;6.34;61.26
14204;BME280;7185;51.854;6.622;2023-04-03T07:09:40;102929.97;;;5.82;61.10
14204;BME280;7185;51.854;6.622;2023-04-03T07:12:13;102931.94;;;6.33;61.10
14204;BME280;7185;51.854;6.622;2023-04-03T07:14:47;102942.06;;;6.25;60.41
14204;BME280;7185;51.854;6.622;2023-04-03T07:17:29;102937.16;;;6.57;59.55
14204;BME280;7185;51.854;6.622;2023-04-03T07:20:05;102951.88;;;6.81;59.22
14204;BME280;7185;51.854;6.622;2023-04-03T07:22:45;102941.38;;;6.53;59.24
14204;BME280;7185;51.854;6.622;2023-04-03T07:25:17;102948.56;;;6.85;57.29
14204;BME280;7185;51.854;6.622;2023-04-03T07:27:49;102954.81;;;7.16;57.39
14204;BME280;7185;51.854;6.622;2023-04-03T07:30:20;102956.78;;;7.23;56.28
14204;BME280;7185;51.854;6.622;2023-04-03T07:32:52;102947.38;;;7.54;55.90
14204;BME280;7185;51.854;6.622;2023-04-03T07:35:24;102953.47;;;7.82;55.00
14204;BME280;7185;51.854;6.622;2023-04-03T07:37:57;102961.19;;;8.08;54.70
14204;BME280;7185;51.854;6.622;2023-04-03T07:40:28;102950.38;;;8.24;52.92
14204;BME280;7185;51.854;6.622;2023-04-03T07:43:00;102965.94;;;8.50;51.82
14204;BME280;7185;51.854;6.622;2023-04-03T07:45:34;102952.31;;;8.32;50.46
14204;BME280;7185;51.854;6.622;2023-04-03T07:48:06;102952.19;;;8.57;49.89
14204;BME280;7185;51.854;6.622;2023-04-03T07:50:39;102961.16;;;8.66;50.43
14204;BME280;7185;51.854;6.622;2023-04-03T07:53:13;102959.47;;;8.37;47.32
14204;BME280;7185;51.854;6.622;2023-04-03T07:55:46;102962.66;;;9.23;50.53
14204;BME280;7185;51.854;6.622;2023-04-03T07:58:18;102954.53;;;9.85;48.08
14204;BME280;7185;51.854;6.622;2023-04-03T08:00:50;102957.38;;;9.96;45.86
14204;BME280;7185;51.854;6.622;2023-04-03T08:03:21;102962.47;;;10.28;47.39
14204;BME280;7185;51.854;6.622;2023-04-03T08:05:53;102955.94;;;10.09;45.56
14204;BME280;7185;51.854;6.622;2023-04-03T08:08:26;102963.81;;;10.11;43.79
14204;BME280;7185;51.854;6.622;2023-04-03T08:11:00;102958.88;;;10.66;44.40
14204;BME280;7185;51.854;6.622;2023-04-03T08:13:33;102966.28;;;10.89;42.62
14204;BME280;7185;51.854;6.622;2023-04-03T08:16:12;102964.78;;;11.03;42.98
14204;BME280;7185;51.854;6.622;2023-04-03T08:18:44;102971.38;;;11.30;43.63
14204;BME280;7185;51.854;6.622;2023-04-03T08:21:15;102968.69;;;11.82;41.90
14204;BME280;7185;51.854;6.622;2023-04-03T08:23:49;102969.16;;;11.55;39.75
14204;BME280;7185;51.854;6.622;2023-04-03T08:26:21;102952.69;;;12.31;39.32
14204;BME280;7185;51.854;6.622;2023-04-03T08:28:53;102960.09;;;12.63;38.60
14204;BME280;7185;51.854;6.622;2023-04-03T08:31:25;102962.78;;;12.68;38.81
14204;BME280;7185;51.854;6.622;2023-04-03T08:33:57;102962.38;;;12.32;39.68
14204;BME280;7185;51.854;6.622;2023-04-03T08:36:29;102956.44;;;12.50;38.38
14204;BME280;7185;51.854;6.622;2023-04-03T08:39:02;102953.03;;;12.59;37.74
14204;BME280;7185;51.854;6.622;2023-04-03T08:41:35;102956.84;;;12.86;38.09
14204;BME280;7185;51.854;6.622;2023-04-03T08:44:15;102951.47;;;12.80;35.48
14204;BME280;7185;51.854;6.622;2023-04-03T08:47:04;102960.28;;;12.82;36.53
14204;BME280;7185;51.854;6.622;2023-04-03T08:49:44;102962.13;;;12.89;36.08
14204;BME280;7185;51.854;6.622;2023-04-03T08:52:19;102953.91;;;13.52;36.69
14204;BME280;7185;51.854;6.622;2023-04-03T08:54:55;102955.75;;;13.62;35.60
14204;BME280;7185;51.854;6.622;2023-04-03T08:57:29;102959.25;;;13.64;35.25
14204;BME280;7185;51.854;6.622;2023-04-03T09:05:16;102954.44;;;14.60;33.59
14204;BME280;7185;51.854;6.622;2023-04-03T09:07:54;102958.91;;;14.72;33.14
14204;BME280;7185;51.854;6.622;2023-04-03T09:10:33;102960.59;;;14.59;32.68
14204;BME280;7185;51.854;6.622;2023-04-03T09:13:10;102943.81;;;14.45;32.28
14204;BME280;7185;51.854;6.622;2023-04-03T09:15:44;102958.88;;;14.77;31.24
14204;BME280;7185;51.854;6.622;2023-04-03T09:18:20;102961.56;;;14.86;31.86
14204;BME280;7185;51.854;6.622;2023-04-03T09:20:58;102957.00;;;14.39;32.58
14204;BME280;7185;51.854;6.622;2023-04-03T09:23:38;102965.06;;;14.77;32.00
14204;BME280;7185;51.854;6.622;2023-04-03T09:26:14;102972.13;;;15.54;30.96
14204;BME280;7185;51.854;6.622;2023-04-03T09:28:48;102971.25;;;14.86;30.61
14204;BME280;7185;51.854;6.622;2023-04-03T09:31:21;102961.53;;;14.80;31.11
14204;BME280;7185;51.854;6.622;2023-04-03T09:33:58;102973.63;;;14.24;28.12
14204;BME280;7185;51.854;6.622;2023-04-03T09:36:38;102953.53;;;14.52;28.09
14204;BME280;7185;51.854;6.622;2023-04-03T09:39:13;102954.03;;;13.74;26.69
14204;BME280;7185;51.854;6.622;2023-04-03T09:41:59;102962.72;;;13.57;28.06
14204;BME280;7185;51.854;6.622;2023-04-03T09:44:33;102957.75;;;14.11;28.80
14204;BME280;7185;51.854;6.622;2023-04-03T09:47:18;102956.16;;;14.46;29.31
14204;BME280;7185;51.854;6.622;2023-04-03T09:49:50;102955.28;;;14.50;28.85
14204;BME280;7185;51.854;6.622;2023-04-03T09:52:24;102958.84;;;14.63;27.02
14204;BME280;7185;51.854;6.622;2023-04-03T09:55:06;102944.78;;;14.62;27.34
14204;BME280;7185;51.854;6.622;2023-04-03T09:57:40;102947.31;;;14.31;27.95
14204;BME280;7185;51.854;6.622;2023-04-03T10:00:20;102940.38;;;14.71;28.51
14204;BME280;7185;51.854;6.622;2023-04-03T10:02:54;102941.09;;;14.23;27.90
14204;BME280;7185;51.854;6.622;2023-04-03T10:05:34;102943.94;;;13.17;29.87
14204;BME280;7185;51.854;6.622;2023-04-03T10:08:15;102947.03;;;13.79;28.73
14204;BME280;7185;51.854;6.622;2023-04-03T10:11:10;102943.97;;;13.23;28.97
14204;BME280;7185;51.854;6.622;2023-04-03T10:13:57;102930.41;;;12.78;28.74
14204;BME280;7185;51.854;6.622;2023-04-03T10:16:35;102939.56;;;13.22;31.17
14204;BME280;7185;51.854;6.622;2023-04-03T10:19:32;102936.16;;;13.32;31.37
14204;BME280;7185;51.854;6.622;2023-04-03T10:22:13;102927.06;;;14.29;31.00
14204;BME280;7185;51.854;6.622;2023-04-03T10:24:55;102926.94;;;14.02;30.65
14204;BME280;7185;51.854;6.622;2023-04-03T10:27:39;102919.13;;;14.23;29.96
14204;BME280;7185;51.854;6.622;2023-04-03T10:30:29;102921.81;;;14.35;31.06
14204;BME280;7185;51.854;6.622;2023-04-03T10:33:16;102911.94;;;13.88;29.92
14204;BME280;7185;51.854;6.622;2023-04-03T10:36:00;102905.03;;;14.22;30.29
14204;BME280;7185;51.854;6.622;2023-04-03T10:38:39;102911.28;;;14.52;30.59
14204;BME280;7185;51.854;6.622;2023-04-03T10:41:20;102906.09;;;14.83;29.59
14204;BME280;7185;51.854;6.622;2023-04-03T10:44:03;102905.22;;;14.90;29.60
14204;BME280;7185;51.854;6.622;2023-04-03T10:46:44;102894.53;;;15.83;27.58
14204;BME280;7185;51.854;6.622;2023-04-03T10:49:28;102899.88;;;15.49;28.38
14204;BME280;7185;51.854;6.622;2023-04-03T10:52:11;102903.44;;;15.14;27.54
14204;BME280;7185;51.854;6.622;2023-04-03T10:54:46;102898.09;;;15.54;26.82
14204;BME280;7185;51.854;6.622;2023-04-03T10:57:23;102897.22;;;15.55;28.29
14204;BME280;7185;51.854;6.622;2023-04-03T10:59:58;102891.84;;;15.94;28.74
14204;BME280;7185;51.854;6.622;2023-04-03T11:02:35;102892.69;;;16.02;28.10
14204;BME280;7185;51.854;6.622;2023-04-03T11:05:15;102883.97;;;15.71;26.80
14204;BME280;7185;51.854;6.622;2023-04-03T11:10:35;102875.13;;;15.78;27.92
14204;BME280;7185;51.854;6.622;2023-04-03T11:13:11;102881.41;;;15.40;28.58
14204;BME280;7185;51.854;6.622;2023-04-03T11:15:45;102873.72;;;16.77;27.55
14204;BME280;7185;51.854;6.622;2023-04-03T11:18:21;102865.25;;;17.34;27.70
14204;BME280;7185;51.854;6.622;2023-04-03T11:21:00;102863.34;;;16.44;27.12
14204;BME280;7185;51.854;6.622;2023-04-03T11:23:36;102871.66;;;15.60;26.63
14204;BME280;7185;51.854;6.622;2023-04-03T11:26:11;102867.97;;;16.05;27.74
14204;BME280;7185;51.854;6.622;2023-04-03T11:28:43;102853.09;;;17.13;26.46
14204;BME280;7185;51.854;6.622;2023-04-03T11:31:29;102864.72;;;17.80;24.91
14204;BME280;7185;51.854;6.622;2023-04-03T11:34:19;102866.44;;;17.05;26.88
14204;BME280;7185;51.854;6.622;2023-04-03T11:36:55;102867.91;;;17.34;27.38
14204;BME280;7185;51.854;6.622;2023-04-03T11:39:30;102849.34;;;17.35;25.45
14204;BME280;7185;51.854;6.622;2023-04-03T11:42:25;102856.97;;;16.71;27.05
14204;BME280;7185;51.854;6.622;2023-04-03T11:45:25;102848.16;;;16.71;27.35
14204;BME280;7185;51.854;6.622;2023-04-03T11:47:58;102860.66;;;17.53;26.04
14204;BME280;7185;51.854;6.622;2023-04-03T11:50:42;102852.41;;;17.76;25.51
14204;BME280;7185;51.854;6.622;2023-04-03T11:53:44;102848.66;;;17.91;25.32
14204;BME280;7185;51.854;6.622;2023-04-03T11:56:30;102846.50;;;16.56;24.17
14204;BME280;7185;51.854;6.622;2023-04-03T11:59:21;102851.72;;;17.60;26.45
14204;BME280;7185;51.854;6.622;2023-04-03T12:01:55;102843.31;;;17.99;26.27
14204;BME280;7185;51.854;6.622;2023-04-03T12:04:27;102839.28;;;18.31;25.34
14204;BME280;7185;51.854;6.622;2023-04-03T12:07:12;102841.19;;;18.24;25.59
14204;BME280;7185;51.854;6.622;2023-04-03T12:10:16;102822.19;;;19.49;25.15
14204;BME280;7185;51.854;6.622;2023-04-03T12:12:58;102825.78;;;19.90;22.86
14204;BME280;7185;51.854;6.622;2023-04-03T12:15:50;102823.44;;;20.16;23.80
14204;BME280;7185;51.854;6.622;2023-04-03T12:18:55;102812.81;;;20.16;24.43
14204;BME280;7185;51.854;6.622;2023-04-03T12:24:40;102804.75;;;18.32;23.16
14204;BME280;7185;51.854;6.622;2023-04-03T12:27:27;102804.00;;;18.23;26.32
14204;BME280;7185;51.854;6.622;2023-04-03T12:30:05;102804.13;;;18.15;24.58
14204;BME280;7185;51.854;6.622;2023-04-03T12:33:20;102792.09;;;18.50;25.79
14204;BME280;7185;51.854;6.622;2023-04-03T12:36:04;102789.91;;;19.24;26.02
14204;BME280;7185;51.854;6.622;2023-04-03T12:41:46;102785.22;;;17.76;26.06
14204;BME280;7185;51.854;6.622;2023-04-03T12:44:31;102797.69;;;18.31;26.39
14204;BME280;7185;51.854;6.622;2023-04-03T12:47:21;102801.50;;;18.12;26.80
14204;BME280;7185;51.854;6.622;2023-04-03T12:49:55;102785.00;;;19.48;25.10
14204;BME280;7185;51.854;6.622;2023-04-03T12:52:38;102796.66;;;18.40;24.36
14204;BME280;7185;51.854;6.622;2023-04-03T12:55:15;102800.25;;;18.36;26.34
14204;BME280;7185;51.854;6.622;2023-04-03T12:57:49;102790.44;;;17.80;25.40
14204;BME280;7185;51.854;6.622;2023-04-03T13:00:36;102788.41;;;18.01;26.11
14204;BME280;7185;51.854;6.622;2023-04-03T13:03:22;102786.59;;;18.03;25.71
14204;BME280;7185;51.854;6.622;2023-04-03T13:05:57;102780.31;;;18.65;24.65
14204;BME280;7185;51.854;6.622;2023-04-03T13:08:31;102778.25;;;18.29;25.12
14204;BME280;7185;51.854;6.622;2023-04-03T13:11:06;102782.53;;;18.38;25.88
14204;BME280;7185;51.854;6.622;2023-04-03T13:13:54;102776.56;;;17.60;26.33
14204;BME280;7185;51.854;6.622;2023-04-03T13:16:26;102777.06;;;18.47;26.40
14204;BME280;7185;51.854;6.622;2023-04-03T13:18:58;102781.44;;;19.03;24.75
14204;BME280;7185;51.854;6.622;2023-04-03T13:21:32;102774.53;;;18.93;25.14
14204;BME280;7185;51.854;6.622;2023-04-03T13:24:05;102753.13;;;19.45;25.36
14204;BME280;7185;51.854;6.622;2023-04-03T13:26:37;102761.91;;;19.04;24.80
14204;BME280;7185;51.854;6.622;2023-04-03T13:29:21;102746.28;;;19.73;26.00
14204;BME280;7185;51.854;6.622;2023-04-03T13:31:54;102746.69;;;19.96;24.76
14204;BME280;7185;51.854;6.622;2023-04-03T13:34:28;102745.22;;;20.20;25.35
14204;BME280;7185;51.854;6.622;2023-04-03T13:37:03;102751.34;;;19.86;22.99
14204;BME280;7185;51.854;6.622;2023-04-03T13:39:37;102762.16;;;18.92;23.24
14204;BME280;7185;51.854;6.622;2023-04-03T13:42:20;102760.13;;;17.98;25.12
14204;BME280;7185;51.854;6.622;2023-04-03T13:48:05;102744.50;;;19.32;24.04
14204;BME280;7185;51.854;6.622;2023-04-03T13:50:57;102732.00;;;19.37;25.01
14204;BME280;7185;51.854;6.622;2023-04-03T13:53:30;102739.16;;;19.75;24.54
14204;BME280;7185;51.854;6.622;2023-04-03T13:56:08;102743.00;;;18.71;26.29
14204;BME280;7185;51.854;6.622;2023-04-03T13:58:53;102734.50;;;19.45;25.49
14204;BME280;7185;51.854;6.622;2023-04-03T14:01:32;102725.34;;;19.58;24.78
14204;BME280;7185;51.854;6.622;2023-04-03T14:04:13;102724.31;;;18.76;23.94
14204;BME280;7185;51.854;6.622;2023-04-03T14:06:46;102720.13;;;19.11;25.59
14204;BME280;7185;51.854;6.622;2023-04-03T14:09:20;102715.25;;;19.33;25.80
14204;BME280;7185;51.854;6.622;2023-04-03T14:11:54;102713.50;;;19.73;24.86
14204;BME280;7185;51.854;6.622;2023-04-03T14:14:30;102723.03;;;17.95;25.00